createdAt,value
2018-01-23T00:00:49.695Z,9.30
2018-01-23T00:03:20.833Z,9.20
2018-01-23T00:05:51.895Z,9.20
2018-01-23T00:08:23.669Z,9.10
2018-01-23T00:10:55.153Z,9.00
2018-01-23T00:13:27.834Z,9.30
2018-01-23T00:15:58.767Z,9.10
2018-01-23T00:18:30.302Z,9.30
2018-01-23T00:21:01.594Z,9.20
2018-01-23T00:23:33.062Z,8.90
2018-01-23T00:26:04.372Z,8.90
2018-01-23T00:28:36.524Z,9.20
2018-01-23T00:31:08.159Z,9.00
2018-01-23T00:33:39.588Z,9.20
2018-01-23T00:36:10.678Z,8.90
2018-01-23T00:38:42.875Z,8.80
2018-01-23T00:41:14.025Z,8.80
2018-01-23T00:43:45.231Z,8.90
2018-01-23T00:46:16.820Z,8.70
2018-01-23T00:48:48.737Z,8.90
2018-01-23T00:51:19.988Z,8.70
2018-01-23T00:53:52.362Z,8.80
2018-01-23T00:56:23.681Z,8.30
2018-01-23T00:58:55.110Z,8.40
2018-01-23T01:01:28.056Z,8.30
2018-01-23T01:03:59.153Z,8.60
2018-01-23T01:06:30.015Z,8.30
2018-01-23T01:09:00.936Z,8.50
2018-01-23T01:11:32.313Z,8.00
2018-01-23T01:14:03.301Z,8.00
2018-01-23T01:16:34.870Z,8.00
2018-01-23T01:19:05.693Z,7.90
2018-01-23T01:21:37.684Z,8.20
2018-01-23T01:24:08.614Z,8.10
2018-01-23T01:26:39.622Z,7.70
2018-01-23T01:29:11.292Z,7.50
2018-01-23T01:31:42.193Z,7.80
2018-01-23T01:34:13.513Z,7.50
2018-01-23T01:36:45.331Z,7.30
2018-01-23T01:39:16.331Z,7.20
2018-01-23T01:41:47.601Z,7.30
2018-01-23T01:44:18.967Z,7.20
2018-01-23T01:46:50.475Z,7.00
2018-01-23T01:49:21.902Z,7.00
2018-01-23T01:51:54.333Z,6.80
2018-01-23T01:54:25.575Z,6.90
2018-01-23T01:56:56.892Z,6.90
2018-01-23T01:59:28.024Z,6.80
2018-01-23T02:02:00.680Z,6.90
2018-01-23T02:04:32.705Z,6.90
2018-01-23T02:07:04.211Z,6.80
2018-01-23T02:09:35.214Z,6.90
2018-01-23T02:12:06.219Z,6.90
2018-01-23T02:14:39.122Z,6.90
2018-01-23T02:17:12.264Z,7.00
2018-01-23T02:19:44.663Z,6.90
2018-01-23T02:22:16.104Z,7.00
2018-01-23T02:24:47.178Z,7.00
2018-01-23T02:27:18.054Z,7.20
2018-01-23T02:29:51.398Z,7.30
2018-01-23T02:32:22.851Z,7.40
2018-01-23T02:34:54.327Z,7.30
2018-01-23T02:37:25.692Z,7.10
2018-01-23T02:39:57.308Z,7.20
2018-01-23T02:42:28.291Z,7.20
2018-01-23T02:44:59.795Z,7.20
2018-01-23T02:47:31.062Z,7.20
2018-01-23T02:50:02.051Z,7.20
2018-01-23T02:52:32.965Z,7.00
2018-01-23T02:55:03.891Z,6.90
2018-01-23T02:57:35.344Z,6.80
2018-01-23T03:00:06.532Z,6.90
2018-01-23T03:02:37.647Z,6.90
2018-01-23T03:05:09.078Z,6.80
2018-01-23T03:07:39.967Z,7.20
2018-01-23T03:10:11.834Z,7.30
2018-01-23T03:12:43.508Z,7.30
2018-01-23T03:15:16.005Z,7.20
2018-01-23T03:17:46.801Z,7.10
2018-01-23T03:20:17.953Z,7.30
2018-01-23T03:22:49.216Z,7.20
2018-01-23T03:25:20.688Z,7.20
2018-01-23T03:27:51.631Z,7.50
2018-01-23T03:30:22.740Z,7.30
2018-01-23T03:32:53.716Z,7.20
2018-01-23T03:35:27.464Z,7.30
2018-01-23T03:37:59.665Z,7.20
2018-01-23T03:40:30.904Z,7.60
2018-01-23T03:43:02.381Z,7.40
2018-01-23T03:45:34.040Z,7.50
2018-01-23T03:48:06.680Z,7.70
2018-01-23T03:50:37.957Z,7.60
2018-01-23T03:53:09.308Z,7.50
2018-01-23T03:55:43.016Z,7.60
2018-01-23T03:58:15.899Z,7.60
2018-01-23T04:00:46.889Z,7.50
2018-01-23T04:03:18.367Z,7.60
2018-01-23T04:05:49.881Z,7.80
2018-01-23T04:08:20.834Z,7.50
2018-01-23T04:10:52.822Z,7.40
2018-01-23T04:13:24.085Z,7.20
2018-01-23T04:15:55.677Z,7.30
2018-01-23T04:18:26.936Z,7.20
2018-01-23T04:20:58.258Z,7.20
2018-01-23T04:23:29.607Z,7.20
2018-01-23T04:26:01.784Z,7.30
2018-01-23T04:28:33.231Z,7.00
2018-01-23T04:31:05.039Z,7.20
2018-01-23T04:33:36.374Z,6.90
2018-01-23T04:36:08.821Z,6.90
2018-01-23T04:38:39.852Z,7.00
2018-01-23T04:41:12.733Z,6.90
2018-01-23T04:43:43.966Z,6.90
2018-01-23T04:46:14.952Z,6.80
2018-01-23T04:48:46.315Z,6.90
2018-01-23T04:51:19.748Z,6.90
2018-01-23T04:53:50.863Z,6.90
2018-01-23T04:56:21.366Z,6.90
2018-01-23T04:58:53.210Z,7.00
2018-01-23T05:01:24.591Z,6.80
2018-01-23T05:03:56.274Z,6.80
2018-01-23T05:06:27.541Z,6.90
2018-01-23T05:08:58.388Z,7.00
2018-01-23T05:11:29.477Z,7.00
2018-01-23T05:14:01.705Z,7.30
2018-01-23T05:16:33.167Z,6.80
2018-01-23T05:19:04.400Z,6.90
2018-01-23T05:21:36.972Z,6.90
2018-01-23T05:24:09.312Z,7.10
2018-01-23T05:26:42.472Z,6.90
2018-01-23T05:29:15.056Z,6.90
2018-01-23T05:31:49.622Z,6.80
2018-01-23T05:34:20.939Z,6.90
2018-01-23T05:36:52.837Z,6.90
2018-01-23T05:39:23.511Z,6.90
2018-01-23T05:41:56.190Z,6.90
2018-01-23T05:44:27.854Z,6.80
2018-01-23T05:46:59.315Z,6.80
2018-01-23T05:49:30.521Z,6.90
2018-01-23T05:52:02.011Z,6.90
2018-01-23T05:54:33.396Z,6.80
2018-01-23T05:57:04.649Z,6.80
2018-01-23T05:59:36.912Z,6.80
2018-01-23T06:02:08.740Z,6.80
2018-01-23T06:04:41.809Z,6.50
2018-01-23T06:07:14.791Z,6.60
2018-01-23T06:09:47.276Z,6.60
2018-01-23T06:12:19.028Z,6.60
2018-01-23T06:14:51.489Z,6.60
2018-01-23T06:17:23.520Z,6.50
2018-01-23T06:19:56.038Z,6.60
2018-01-23T06:22:28.733Z,6.60
2018-01-23T06:25:00.015Z,6.50
2018-01-23T06:27:32.689Z,6.60
2018-01-23T06:30:04.646Z,6.60
2018-01-23T06:32:36.867Z,6.40
2018-01-23T06:35:23.873Z,6.60
2018-01-23T06:37:55.480Z,6.60
2018-01-23T06:40:26.843Z,6.60
2018-01-23T06:43:00.611Z,6.50
2018-01-23T06:45:31.575Z,6.60
2018-01-23T06:48:03.444Z,6.50
2018-01-23T06:50:35.156Z,6.50
2018-01-23T06:53:07.396Z,6.50
2018-01-23T06:55:38.607Z,6.60
2018-01-23T06:58:09.410Z,6.50
2018-01-23T07:00:40.656Z,6.50
2018-01-23T07:03:13.212Z,6.50
2018-01-23T07:05:45.251Z,6.60
2018-01-23T07:08:16.633Z,6.50
2018-01-23T07:10:47.663Z,6.40
2018-01-23T07:13:19.364Z,6.60
2018-01-23T07:15:50.352Z,6.60
2018-01-23T07:18:23.077Z,6.50
2018-01-23T07:20:54.195Z,6.50
2018-01-23T07:23:25.693Z,6.60
2018-01-23T07:25:56.737Z,6.50
2018-01-23T07:28:28.511Z,6.60
2018-01-23T07:31:00.039Z,6.50
2018-01-23T07:33:31.718Z,6.60
2018-01-23T07:36:03.283Z,6.50
2018-01-23T07:38:34.849Z,6.60
2018-01-23T07:41:06.342Z,6.50
2018-01-23T07:43:37.355Z,6.60
2018-01-23T07:46:08.268Z,6.60
2018-01-23T07:48:40.047Z,6.60
2018-01-23T07:51:12.162Z,6.50
2018-01-23T07:53:43.336Z,6.70
2018-01-23T07:56:15.140Z,6.80
2018-01-23T07:58:47.768Z,6.70
2018-01-23T08:01:18.569Z,6.90
2018-01-23T08:03:49.542Z,6.70
2018-01-23T08:06:21.098Z,6.70
2018-01-23T08:08:53.578Z,6.70
2018-01-23T08:11:24.657Z,6.90
2018-01-23T08:13:57.375Z,6.80
2018-01-23T08:16:28.587Z,6.90
2018-01-23T08:18:59.857Z,6.90
2018-01-23T08:21:31.802Z,6.90
2018-01-23T08:24:02.840Z,6.80
2018-01-23T08:26:34.131Z,6.80
2018-01-23T08:29:05.041Z,6.80
2018-01-23T08:31:35.834Z,6.70
2018-01-23T08:34:07.244Z,6.70
2018-01-23T08:36:38.646Z,6.90
2018-01-23T08:39:09.495Z,6.70
2018-01-23T08:41:40.675Z,6.80
2018-01-23T08:44:12.060Z,6.70
2018-01-23T08:46:42.897Z,6.70
2018-01-23T08:49:14.403Z,6.80
2018-01-23T08:51:45.241Z,6.80
2018-01-23T08:54:16.236Z,6.60
2018-01-23T08:56:47.347Z,6.50
2018-01-23T08:59:21.076Z,6.90
2018-01-23T09:01:51.977Z,6.80
2018-01-23T09:04:23.485Z,6.80
2018-01-23T09:06:54.327Z,6.90
2018-01-23T09:09:25.314Z,6.90
2018-01-23T09:11:56.542Z,7.00
2018-01-23T09:14:29.546Z,6.80
2018-01-23T09:17:00.598Z,6.90
2018-01-23T09:19:31.317Z,6.80
2018-01-23T09:22:03.094Z,6.90
2018-01-23T09:24:34.072Z,6.90
2018-01-23T09:27:05.673Z,6.90
2018-01-23T09:29:36.675Z,6.80
2018-01-23T09:32:07.326Z,6.90
2018-01-23T09:34:38.430Z,6.90
2018-01-23T09:37:09.613Z,6.90
2018-01-23T09:39:40.470Z,6.90
2018-01-23T09:42:11.210Z,6.80
2018-01-23T09:44:41.767Z,7.00
2018-01-23T09:47:12.856Z,6.70
2018-01-23T09:49:44.277Z,6.90
2018-01-23T09:52:15.547Z,6.90
2018-01-23T09:54:46.267Z,6.80
2018-01-23T09:57:17.689Z,6.50
2018-01-23T09:59:48.549Z,6.50
2018-01-23T10:02:19.379Z,6.90
2018-01-23T10:04:50.715Z,6.60
2018-01-23T10:07:21.617Z,6.50
2018-01-23T10:09:52.453Z,6.80
2018-01-23T10:12:23.721Z,6.50
2018-01-23T10:14:54.521Z,6.60
2018-01-23T10:17:25.433Z,6.70
2018-01-23T10:19:58.467Z,6.80
2018-01-23T10:22:30.349Z,6.60
2018-01-23T10:25:01.133Z,6.60
2018-01-23T10:27:32.673Z,6.80
2018-01-23T10:30:04.700Z,6.80
2018-01-23T10:32:37.439Z,6.60
2018-01-23T10:35:09.511Z,6.80
2018-01-23T10:37:40.282Z,6.70
2018-01-23T10:40:11.008Z,6.50
2018-01-23T10:42:42.343Z,6.50
2018-01-23T10:45:13.228Z,6.60
2018-01-23T10:47:44.066Z,6.60
2018-01-23T10:50:16.334Z,6.50
2018-01-23T10:52:47.455Z,6.50
2018-01-23T10:55:18.431Z,6.60
2018-01-23T10:57:49.435Z,6.50
2018-01-23T11:00:21.755Z,6.50
2018-01-23T11:02:52.765Z,6.60
2018-01-23T11:05:26.674Z,6.50
2018-01-23T11:07:57.509Z,6.70
2018-01-23T11:10:28.192Z,6.50
2018-01-23T11:12:59.307Z,6.50
2018-01-23T11:15:33.514Z,6.50
2018-01-23T11:18:04.239Z,6.50
2018-01-23T11:20:36.005Z,6.40
2018-01-23T11:23:07.763Z,6.50
2018-01-23T11:25:38.628Z,6.50
2018-01-23T11:28:09.985Z,6.60
2018-01-23T11:30:41.199Z,6.50
2018-01-23T11:33:12.514Z,6.50
2018-01-23T11:35:43.988Z,6.40
2018-01-23T11:38:14.808Z,6.80
2018-01-23T11:40:45.887Z,6.80
2018-01-23T11:43:17.286Z,6.90
2018-01-23T11:45:48.208Z,6.90
2018-01-23T11:48:18.600Z,6.80
2018-01-23T11:50:50.174Z,6.70
2018-01-23T11:53:21.744Z,6.80
2018-01-23T11:55:53.534Z,7.00
2018-01-23T11:58:25.606Z,7.00
2018-01-23T12:00:56.980Z,6.90
2018-01-23T12:03:28.364Z,6.90
2018-01-23T12:06:01.933Z,6.70
2018-01-23T12:08:32.731Z,6.90
2018-01-23T12:11:04.723Z,6.70
2018-01-23T12:13:35.550Z,6.80
2018-01-23T12:16:06.413Z,6.70
2018-01-23T12:18:37.237Z,6.80
2018-01-23T12:21:08.442Z,6.90
2018-01-23T12:23:40.196Z,6.80
2018-01-23T12:26:12.042Z,6.80
2018-01-23T12:28:43.715Z,6.60
2018-01-23T12:31:14.395Z,6.70
2018-01-23T12:33:45.457Z,6.60
2018-01-23T12:36:16.915Z,6.60
2018-01-23T12:38:48.285Z,6.60
2018-01-23T12:41:18.741Z,6.70
2018-01-23T12:43:50.047Z,6.60
2018-01-23T12:46:21.615Z,6.70
2018-01-23T12:48:53.131Z,6.80
2018-01-23T12:51:24.675Z,6.50
2018-01-23T12:53:56.053Z,6.80
2018-01-23T12:56:27.049Z,6.90
2018-01-23T12:58:58.352Z,6.90
2018-01-23T13:01:29.748Z,6.60
2018-01-23T13:04:00.978Z,6.70
2018-01-23T13:06:32.531Z,6.90
2018-01-23T13:09:03.487Z,6.70
2018-01-23T13:11:34.381Z,6.80
2018-01-23T13:14:05.710Z,6.80
2018-01-23T13:16:36.365Z,6.50
2018-01-23T13:19:06.684Z,6.50
2018-01-23T13:21:37.517Z,7.00
2018-01-23T13:24:08.628Z,6.40
2018-01-23T13:26:40.910Z,6.70
2018-01-23T13:29:13.561Z,7.00
2018-01-23T13:31:45.935Z,6.90
2018-01-23T13:34:16.886Z,6.40
2018-01-23T13:36:48.067Z,6.50
2018-01-23T13:39:19.373Z,6.60
2018-01-23T13:41:50.342Z,6.50
2018-01-23T13:44:21.629Z,6.40
2018-01-23T13:46:52.793Z,6.60
2018-01-23T13:49:24.229Z,6.50
2018-01-23T13:51:56.017Z,6.60
2018-01-23T13:54:27.239Z,6.60
2018-01-23T13:56:58.373Z,6.60
2018-01-23T13:59:29.015Z,6.50
2018-01-23T14:02:00.054Z,6.50
2018-01-23T14:04:31.452Z,6.60
2018-01-23T14:07:05.758Z,6.50
2018-01-23T14:09:36.851Z,6.40
2018-01-23T14:12:08.679Z,6.30
2018-01-23T14:14:39.512Z,6.20
2018-01-23T14:17:10.643Z,6.20
2018-01-23T14:19:41.776Z,6.00
2018-01-23T14:22:13.157Z,6.20
2018-01-23T14:24:44.558Z,6.20
2018-01-23T14:27:16.418Z,6.00
2018-01-23T14:29:47.486Z,6.20
2018-01-23T14:32:18.463Z,6.20
2018-01-23T14:34:49.616Z,5.90
2018-01-23T14:37:20.719Z,5.90
2018-01-23T14:39:52.783Z,6.20
2018-01-23T14:42:24.968Z,6.10
2018-01-23T14:44:55.999Z,6.30
2018-01-23T14:47:27.414Z,6.30
2018-01-23T14:49:58.714Z,6.30
2018-01-23T14:52:30.152Z,6.00
2018-01-23T14:55:02.117Z,6.10
2018-01-23T14:57:34.055Z,6.10
2018-01-23T15:00:05.650Z,6.30
2018-01-23T15:02:36.885Z,6.30
2018-01-23T15:05:07.714Z,6.00
2018-01-23T15:07:41.714Z,6.20
2018-01-23T15:10:12.270Z,6.40
2018-01-23T15:12:43.211Z,6.30
2018-01-23T15:15:14.173Z,6.30
2018-01-23T15:17:47.511Z,6.20
2018-01-23T15:20:18.561Z,6.30
2018-01-23T15:22:49.449Z,6.40
2018-01-23T15:25:20.817Z,6.20
2018-01-23T15:27:51.905Z,6.20
2018-01-23T15:30:23.327Z,6.00
2018-01-23T15:32:54.604Z,6.10
2018-01-23T15:35:26.556Z,6.20
2018-01-23T15:37:57.645Z,6.20
2018-01-23T15:40:29.667Z,6.20
2018-01-23T15:43:01.857Z,6.20
2018-01-23T15:45:33.970Z,6.30
2018-01-23T15:48:05.079Z,6.20
2018-01-23T15:50:37.001Z,6.20
2018-01-23T15:53:09.589Z,6.20
2018-01-23T15:55:40.746Z,6.10
2018-01-23T15:58:12.490Z,6.20
2018-01-23T16:00:43.634Z,6.20
2018-01-23T16:03:14.970Z,6.10
2018-01-23T16:05:46.304Z,6.10
2018-01-23T16:08:17.761Z,6.30
2018-01-23T16:10:48.737Z,6.30
2018-01-23T16:13:21.577Z,6.20
2018-01-23T16:15:52.655Z,6.00
2018-01-23T16:18:24.085Z,6.30
2018-01-23T16:20:55.259Z,6.30
2018-01-23T16:23:26.853Z,6.20
2018-01-23T16:25:57.651Z,5.80
2018-01-23T16:28:29.489Z,5.80
2018-01-23T16:31:00.785Z,6.00
2018-01-23T16:33:34.720Z,6.10
2018-01-23T16:36:06.349Z,6.00
2018-01-23T16:38:37.947Z,6.00
2018-01-23T16:41:09.395Z,5.90
2018-01-23T16:43:41.046Z,6.00
2018-01-23T16:46:12.616Z,5.90
2018-01-23T16:48:44.593Z,6.00
2018-01-23T16:51:16.428Z,6.00
2018-01-23T16:53:47.940Z,5.80
2018-01-23T16:56:19.121Z,6.10
2018-01-23T16:58:50.715Z,5.90
2018-01-23T17:01:21.371Z,5.60
2018-01-23T17:03:52.585Z,5.80
2018-01-23T17:06:24.515Z,5.50
2018-01-23T17:08:55.885Z,5.50
2018-01-23T17:11:27.707Z,5.60
2018-01-23T17:13:59.090Z,5.70
2018-01-23T17:16:31.666Z,5.50
2018-01-23T17:19:02.509Z,5.60
2018-01-23T17:21:34.986Z,5.60
2018-01-23T17:24:05.880Z,5.60
2018-01-23T17:26:36.741Z,5.60
2018-01-23T17:29:08.838Z,5.50
2018-01-23T17:31:40.312Z,5.70
2018-01-23T17:34:11.341Z,5.50
2018-01-23T17:36:43.694Z,5.50
2018-01-23T17:39:14.738Z,5.70
2018-01-23T17:41:45.962Z,5.90
2018-01-23T17:44:17.945Z,5.90
2018-01-23T17:46:49.137Z,6.00
2018-01-23T17:49:21.309Z,6.00
2018-01-23T17:51:53.057Z,6.00
2018-01-23T17:54:24.296Z,5.90
2018-01-23T17:56:55.187Z,6.00
2018-01-23T17:59:26.486Z,5.90
2018-01-23T18:01:57.390Z,5.70
2018-01-23T18:04:28.767Z,5.90
2018-01-23T18:07:00.175Z,5.70
2018-01-23T18:09:32.535Z,6.00
2018-01-23T18:12:03.369Z,5.90
2018-01-23T18:14:34.827Z,6.00
2018-01-23T18:17:06.353Z,6.00
2018-01-23T18:19:37.466Z,6.00
2018-01-23T18:22:09.026Z,5.90
2018-01-23T18:24:40.060Z,5.40
2018-01-23T18:27:11.856Z,5.60
2018-01-23T18:29:43.210Z,5.50
2018-01-23T18:32:14.631Z,5.70
2018-01-23T18:34:46.698Z,5.60
2018-01-23T18:37:18.429Z,5.70
2018-01-23T18:39:51.365Z,5.70
2018-01-23T18:42:22.472Z,5.70
2018-01-23T18:44:53.407Z,5.90
2018-01-23T18:47:24.699Z,5.90
2018-01-23T18:49:55.900Z,5.90
2018-01-23T18:52:26.956Z,5.90
2018-01-23T18:54:59.008Z,5.70
2018-01-23T18:57:30.342Z,5.70
2018-01-23T19:00:01.498Z,5.70
2018-01-23T19:02:32.185Z,6.00
2018-01-23T19:05:03.290Z,6.00
2018-01-23T19:07:35.093Z,6.00
2018-01-23T19:10:07.126Z,5.80
2018-01-23T19:12:38.386Z,6.20
2018-01-23T19:15:09.854Z,5.90
2018-01-23T19:17:40.671Z,6.00
2018-01-23T19:20:11.579Z,6.00
2018-01-23T19:22:42.894Z,6.00
2018-01-23T19:25:13.855Z,5.90
2018-01-23T19:27:45.619Z,6.00
2018-01-23T19:30:16.727Z,6.30
2018-01-23T19:32:49.441Z,6.20
2018-01-23T19:35:21.061Z,6.20
2018-01-23T19:37:52.620Z,6.20
2018-01-23T19:40:24.593Z,5.80
2018-01-23T19:42:57.043Z,6.30
2018-01-23T19:45:28.658Z,6.30
2018-01-23T19:48:00.346Z,6.20
2018-01-23T19:50:31.557Z,6.10
2018-01-23T19:53:03.171Z,6.00
2018-01-23T19:55:34.805Z,5.70
2018-01-23T19:58:06.124Z,6.30
2018-01-23T20:00:38.408Z,6.10
2018-01-23T20:03:10.290Z,5.90
2018-01-23T20:05:41.115Z,6.20
2018-01-23T20:08:12.462Z,5.80
2018-01-23T20:10:47.202Z,6.20
2018-01-23T20:13:19.024Z,6.10
2018-01-23T20:15:50.748Z,6.20
2018-01-23T20:18:22.061Z,6.20
2018-01-23T20:20:53.679Z,6.10
2018-01-23T20:23:24.895Z,6.20
2018-01-23T20:25:57.421Z,6.20
2018-01-23T20:28:28.352Z,6.20
2018-01-23T20:30:59.667Z,6.10
2018-01-23T20:33:30.798Z,6.20
2018-01-23T20:36:01.778Z,6.20
2018-01-23T20:38:32.614Z,6.40
2018-01-23T20:41:04.059Z,6.00
2018-01-23T20:43:36.522Z,6.30
2018-01-23T20:46:07.481Z,6.30
2018-01-23T20:48:38.756Z,6.20
2018-01-23T20:51:09.711Z,6.20
2018-01-23T20:53:43.213Z,6.30
2018-01-23T20:56:14.525Z,6.30
2018-01-23T20:58:45.255Z,6.20
2018-01-23T21:01:16.524Z,6.50
2018-01-23T21:03:49.145Z,6.50
2018-01-23T21:06:20.978Z,6.50
2018-01-23T21:08:53.203Z,6.30
2018-01-23T21:11:27.335Z,6.50
2018-01-23T21:13:58.470Z,6.50
2018-01-23T21:16:29.877Z,6.50
2018-01-23T21:19:01.701Z,6.50
2018-01-23T21:21:33.065Z,6.50
2018-01-23T21:24:08.232Z,6.50
2018-01-23T21:26:39.444Z,6.50
2018-01-23T21:29:10.797Z,6.50
2018-01-23T21:31:41.680Z,6.60
2018-01-23T21:34:13.018Z,6.50
2018-01-23T21:36:44.304Z,6.60
2018-01-23T21:39:15.688Z,6.40
2018-01-23T21:41:46.571Z,6.60
2018-01-23T21:44:19.303Z,6.70
2018-01-23T21:46:50.620Z,6.60
2018-01-23T21:49:22.539Z,6.50
2018-01-23T21:51:56.077Z,6.60
2018-01-23T21:54:29.090Z,6.20
2018-01-23T21:57:00.245Z,6.30
2018-01-23T21:59:35.146Z,6.40
2018-01-23T22:02:06.761Z,6.20
2018-01-23T22:04:37.656Z,6.40
2018-01-23T22:07:08.370Z,6.20
2018-01-23T22:09:39.693Z,6.60
2018-01-23T22:12:11.036Z,6.60
2018-01-23T22:14:42.157Z,6.60
2018-01-23T22:17:13.514Z,6.50
2018-01-23T22:19:45.078Z,6.40
2018-01-23T22:22:16.131Z,6.20
2018-01-23T22:24:47.749Z,6.30
2018-01-23T22:27:19.792Z,6.30
2018-01-23T22:29:50.919Z,6.20
2018-01-23T22:32:22.119Z,6.50
2018-01-23T22:34:53.607Z,6.60
2018-01-23T22:37:26.122Z,6.60
2018-01-23T22:39:57.669Z,6.40
2018-01-23T22:42:29.117Z,6.30
2018-01-23T22:45:00.209Z,6.30
2018-01-23T22:47:32.060Z,6.20
2018-01-23T22:50:04.516Z,6.50
2018-01-23T22:52:36.902Z,6.40
2018-01-23T22:55:08.304Z,6.60
2018-01-23T22:57:39.456Z,6.60
2018-01-23T23:00:10.885Z,6.50
2018-01-23T23:02:41.671Z,6.90
2018-01-23T23:05:12.681Z,6.90
2018-01-23T23:07:45.051Z,6.80
2018-01-23T23:10:15.857Z,6.90
2018-01-23T23:12:47.711Z,6.90
2018-01-23T23:15:19.044Z,6.90
2018-01-23T23:17:50.436Z,7.00
2018-01-23T23:20:21.766Z,6.90
2018-01-23T23:22:52.615Z,7.00
2018-01-23T23:25:24.025Z,6.90
2018-01-23T23:27:55.538Z,6.90
2018-01-23T23:30:28.285Z,6.90
2018-01-23T23:32:59.756Z,6.80
2018-01-23T23:35:30.783Z,6.90
2018-01-23T23:38:01.959Z,7.00
2018-01-23T23:40:33.166Z,6.90
2018-01-23T23:43:05.394Z,6.90
2018-01-23T23:45:37.094Z,7.20
2018-01-23T23:48:08.469Z,6.90
2018-01-23T23:50:39.604Z,7.00
2018-01-23T23:53:10.643Z,7.20
2018-01-23T23:55:41.797Z,6.80
2018-01-23T23:58:12.791Z,7.30
